Accueil
METAR-TAF:

METAR-TAF

Aéroports :

Guaymas, Mexique

latitude: 27-58N, longitude: 110-56W, altitude: 27 m

Observation

Le bulletin a été fait il y a 1 heure et 11 minutes, à 20:41 UTC
Vent 16 kt de nord/nord-ouest
Température 22°C
Humidité 13%
Pression 1014 hPa
Visibilité: 16.1 km
Ciel clair

METAR: MMGM 222041Z 34016KT 10SM SKC 22/M08 A2994

Heure: 14:52 (21:52 UTC)

Prévision

Le bulletin a été fait il y a 5 heures et 7 minutes, à 16:45 UTC
Prévision valable du 22 à 18 UTC au 23 à 18 UTC
Vent 15 kt de nord-ouest
Visibilité: 10 km
Ciel clair
A partir de 23 à 0400 UTC
Vent 12 kt de nord-ouest
Visibilité: 10 km
Ciel clair
A partir de 23 à 1600 UTC
Vent 10 kt de nord
Visibilité: 10 km
Ciel clair

TAF: MMGM 221645Z 2218/2318 31015KT P6SM SKC FM230400 32012KT P6SM SKC FM231600 35010KT P6SM SKC

Observations et prévisions météorologiques de plus de 4000 aéroports (messages METAR et TAF).

Les stations disponibles sont représentées par des disques jaunes et rouges sur la carte.

Passer la souris dessus pour voir le nom de la station.

Cliquer dessus pour voir les observations et prévisions météorologiques.

Pour changer de carte: cliquez sur les boutons verts avec une croix noire pour zoomer, sur le bouton vert avec un tiret pour effectuer un zoom arrière, ou sur les flèches vertes pour les cartes adjacentes.


METAR-TAF: